createdAt,value
2022-09-09T00:02:20.630Z,7.90
2022-09-09T00:05:28.463Z,8.23
2022-09-09T00:08:35.617Z,8.93
2022-09-09T00:11:49.081Z,8.68
2022-09-09T00:14:56.028Z,8.38
2022-09-09T00:17:57.522Z,7.93
2022-09-09T00:21:09.101Z,8.40
2022-09-09T00:23:56.062Z,8.68
2022-09-09T00:26:50.133Z,8.60
2022-09-09T00:29:39.568Z,9.23
2022-09-09T00:32:29.603Z,10.38
2022-09-09T00:35:32.845Z,9.18
2022-09-09T00:38:26.856Z,9.55
2022-09-09T00:41:36.390Z,9.45
2022-09-09T00:44:25.153Z,8.32
2022-09-09T00:47:36.492Z,8.57
2022-09-09T00:50:30.743Z,9.25
2022-09-09T00:53:52.942Z,8.02
2022-09-09T00:56:54.530Z,8.55
2022-09-09T00:59:52.731Z,8.52
2022-09-09T01:02:51.154Z,9.25
2022-09-09T01:05:43.418Z,9.85
2022-09-09T01:08:39.908Z,9.70
2022-09-09T01:12:04.198Z,9.43
2022-09-09T01:14:55.454Z,9.93
2022-09-09T01:17:49.826Z,8.80
2022-09-09T01:20:48.723Z,10.18
2022-09-09T01:23:47.398Z,9.48
2022-09-09T01:26:45.805Z,10.18
2022-09-09T01:29:42.003Z,9.35
2022-09-09T01:32:49.829Z,9.73
2022-09-09T01:35:41.552Z,9.57
2022-09-09T01:41:13.928Z,9.90
2022-09-09T01:44:23.037Z,10.23
2022-09-09T01:47:09.612Z,10.43
2022-09-09T01:50:10.005Z,10.50
2022-09-09T01:53:00.828Z,9.85
2022-09-09T01:56:08.933Z,9.63
2022-09-09T01:59:06.696Z,10.27
2022-09-09T02:01:58.901Z,10.02
2022-09-09T02:04:49.219Z,9.68
2022-09-09T02:07:43.366Z,10.30
2022-09-09T02:11:02.855Z,9.75
2022-09-09T02:14:19.263Z,9.85
2022-09-09T02:17:11.190Z,10.93
2022-09-09T02:20:15.984Z,10.07
2022-09-09T02:23:29.204Z,9.77
2022-09-09T02:26:21.260Z,9.55
2022-09-09T02:29:15.515Z,9.75
2022-09-09T02:32:05.209Z,9.23
2022-09-09T02:35:01.910Z,10.75
2022-09-09T02:37:47.889Z,10.13
2022-09-09T02:40:35.002Z,9.65
2022-09-09T02:43:25.052Z,10.15
2022-09-09T02:46:40.500Z,9.27
2022-09-09T02:49:58.860Z,9.02
2022-09-09T02:53:26.842Z,10.23
2022-09-09T02:56:22.640Z,9.55
2022-09-09T02:59:09.297Z,8.98
2022-09-09T03:01:56.157Z,8.82
2022-09-09T03:04:45.624Z,10.48
2022-09-09T03:07:33.210Z,9.40
2022-09-09T03:10:20.265Z,9.60
2022-09-09T03:13:06.924Z,9.38
2022-09-09T03:15:57.500Z,9.90
2022-09-09T03:18:46.048Z,8.70
2022-09-09T03:21:31.881Z,9.23
2022-09-09T03:24:18.633Z,9.15
2022-09-09T03:27:04.802Z,8.32
2022-09-09T03:29:53.744Z,8.75
2022-09-09T03:32:47.087Z,9.23
2022-09-09T03:35:34.688Z,8.90
2022-09-09T03:38:22.244Z,8.52
2022-09-09T03:41:08.912Z,8.82
2022-09-09T03:43:55.589Z,9.07
2022-09-09T03:46:44.214Z,9.23
2022-09-09T03:49:30.230Z,8.95
2022-09-09T03:52:20.423Z,8.73
2022-09-09T03:55:10.416Z,9.13
2022-09-09T03:57:56.661Z,8.75
2022-09-09T04:00:44.242Z,9.82
2022-09-09T04:03:30.861Z,9.00
2022-09-09T04:06:18.214Z,10.10
2022-09-09T04:09:06.506Z,9.27
2022-09-09T04:11:54.189Z,9.70
2022-09-09T04:14:40.378Z,9.32
2022-09-09T04:17:26.944Z,8.80
2022-09-09T04:20:13.208Z,9.27
2022-09-09T04:22:59.315Z,9.50
2022-09-09T04:25:50.132Z,9.63
2022-09-09T04:28:37.290Z,10.10
2022-09-09T04:31:26.964Z,10.23
2022-09-09T04:34:15.789Z,10.50
2022-09-09T04:37:02.233Z,10.15
2022-09-09T04:39:48.721Z,10.73
2022-09-09T04:42:37.184Z,11.27
2022-09-09T04:45:23.575Z,9.73
2022-09-09T04:48:10.708Z,10.32
2022-09-09T04:51:05.801Z,10.73
2022-09-09T04:53:55.094Z,10.68
2022-09-09T04:56:43.495Z,10.70
2022-09-09T04:59:31.284Z,9.85
2022-09-09T05:02:19.920Z,10.60
2022-09-09T05:05:07.515Z,9.65
2022-09-09T05:07:53.628Z,10.18
2022-09-09T05:10:40.214Z,10.20
2022-09-09T05:13:30.049Z,9.52
2022-09-09T05:16:16.368Z,9.00
2022-09-09T05:19:04.269Z,9.90
2022-09-09T05:22:02.106Z,10.70
2022-09-09T05:24:56.032Z,10.68
2022-09-09T05:27:41.919Z,11.15
2022-09-09T05:30:27.900Z,11.13
2022-09-09T05:33:14.253Z,10.15
2022-09-09T05:36:02.699Z,10.73
2022-09-09T05:38:50.279Z,11.13
2022-09-09T05:41:36.994Z,10.77
2022-09-09T05:44:26.054Z,10.55
2022-09-09T05:47:13.273Z,11.18
2022-09-09T05:49:59.084Z,11.63
2022-09-09T05:52:45.537Z,12.10
2022-09-09T05:55:32.266Z,11.70
2022-09-09T05:58:19.128Z,11.20
2022-09-09T06:01:09.709Z,14.10
2022-09-09T06:03:56.713Z,18.45
2022-09-09T06:06:44.148Z,18.58
2022-09-09T06:09:33.689Z,15.40
2022-09-09T06:12:19.452Z,14.50
2022-09-09T06:15:06.263Z,14.85
2022-09-09T06:17:56.622Z,13.80
2022-09-09T06:20:42.432Z,11.68
2022-09-09T06:23:29.521Z,10.52
2022-09-09T06:26:20.954Z,9.75
2022-09-09T06:29:08.941Z,8.95
2022-09-09T06:31:56.869Z,8.93
2022-09-09T06:34:46.441Z,9.57
2022-09-09T06:37:32.365Z,10.20
2022-09-09T06:40:18.791Z,9.20
2022-09-09T06:43:05.138Z,9.45
2022-09-09T06:46:13.921Z,9.65
2022-09-09T06:49:00.939Z,9.52
2022-09-09T06:51:47.447Z,8.90
2022-09-09T06:54:34.669Z,9.45
2022-09-09T06:57:36.350Z,9.40
2022-09-09T07:00:25.104Z,10.20
2022-09-09T07:03:11.800Z,9.57
2022-09-09T07:05:58.745Z,9.77
2022-09-09T07:08:58.811Z,10.25
2022-09-09T07:11:49.165Z,9.68
2022-09-09T07:14:38.569Z,9.65
2022-09-09T07:17:29.324Z,9.13
2022-09-09T07:20:16.880Z,8.95
2022-09-09T07:23:03.922Z,8.93
2022-09-09T07:25:51.479Z,11.18
2022-09-09T07:28:38.749Z,9.68
2022-09-09T07:31:37.615Z,8.95
2022-09-09T07:34:27.245Z,10.13
2022-09-09T07:37:14.503Z,10.38
2022-09-09T07:40:04.235Z,9.27
2022-09-09T07:42:50.386Z,9.10
2022-09-09T07:45:37.041Z,8.73
2022-09-09T07:48:22.939Z,8.85
2022-09-09T07:51:11.441Z,9.25
2022-09-09T07:54:00.748Z,11.32
2022-09-09T07:56:47.773Z,10.27
2022-09-09T07:59:34.626Z,8.70
2022-09-09T08:02:20.742Z,10.32
2022-09-09T08:05:07.149Z,9.60
2022-09-09T08:07:53.685Z,9.98
2022-09-09T08:10:39.730Z,25.35
2022-09-09T08:13:25.562Z,12.10
2022-09-09T08:16:16.451Z,11.18
2022-09-09T08:19:03.869Z,9.27
2022-09-09T08:21:50.173Z,9.98
2022-09-09T08:24:37.007Z,9.95
2022-09-09T08:27:23.778Z,9.57
2022-09-09T08:30:13.829Z,9.48
2022-09-09T08:33:01.045Z,10.30
2022-09-09T08:35:52.039Z,10.18
2022-09-09T08:38:38.795Z,11.48
2022-09-09T08:42:02.008Z,10.40
2022-09-09T08:44:57.215Z,11.95
2022-09-09T08:48:04.553Z,13.57
2022-09-09T08:50:53.145Z,15.10
2022-09-09T08:53:55.363Z,13.02
2022-09-09T08:56:45.596Z,14.98
2022-09-09T08:59:32.680Z,15.23
2022-09-09T09:02:24.839Z,16.38
2022-09-09T09:05:31.114Z,16.73
2022-09-09T09:08:30.058Z,16.48
2022-09-09T09:11:15.961Z,13.80
2022-09-09T09:14:24.528Z,13.23
2022-09-09T09:17:21.773Z,13.52
2022-09-09T09:20:13.762Z,13.20
2022-09-09T09:23:01.931Z,16.05
2022-09-09T09:25:48.218Z,14.95
2022-09-09T09:28:35.159Z,16.02
2022-09-09T09:31:28.660Z,15.23
2022-09-09T09:34:14.937Z,13.82
2022-09-09T09:37:02.789Z,12.32
2022-09-09T09:40:07.002Z,13.65
2022-09-09T09:42:55.370Z,15.10
2022-09-09T09:45:55.252Z,15.25
2022-09-09T09:49:06.734Z,14.85
2022-09-09T09:51:53.823Z,14.90
2022-09-09T09:54:43.114Z,13.60
2022-09-09T09:57:32.618Z,14.57
2022-09-09T10:00:23.946Z,13.55
2022-09-09T10:03:24.044Z,13.43
2022-09-09T10:06:11.049Z,13.40
2022-09-09T10:08:56.947Z,13.65
2022-09-09T10:11:48.014Z,13.70
2022-09-09T10:15:00.048Z,13.55
2022-09-09T10:18:02.974Z,15.33
2022-09-09T10:21:11.188Z,13.13
2022-09-09T10:24:34.465Z,14.23
2022-09-09T10:27:42.053Z,15.98
2022-09-09T10:30:42.595Z,13.57
2022-09-09T10:33:45.745Z,11.98
2022-09-09T10:36:31.998Z,12.10
2022-09-09T10:39:20.808Z,11.40
2022-09-09T10:42:13.968Z,12.25
2022-09-09T10:45:26.343Z,11.52
2022-09-09T10:48:27.425Z,11.23
2022-09-09T10:51:22.570Z,11.40
2022-09-09T10:54:18.731Z,11.57
2022-09-09T10:57:22.174Z,11.38
2022-09-09T11:00:38.554Z,13.82
2022-09-09T11:03:30.624Z,13.88
2022-09-09T11:06:20.821Z,15.40
2022-09-09T11:09:07.910Z,21.58
2022-09-09T11:11:55.697Z,17.70
2022-09-09T11:14:49.653Z,13.05
2022-09-09T11:17:48.130Z,12.27
2022-09-09T11:20:36.144Z,11.27
2022-09-09T11:23:42.319Z,11.45
2022-09-09T11:26:41.038Z,12.32
2022-09-09T11:29:51.838Z,13.23
2022-09-09T11:33:11.140Z,14.68
2022-09-09T11:36:05.877Z,11.02
2022-09-09T11:39:01.667Z,14.48
2022-09-09T11:41:47.524Z,16.67
2022-09-09T11:44:33.453Z,30.83
2022-09-09T11:47:31.353Z,15.75
2022-09-09T11:50:17.390Z,15.70
2022-09-09T11:53:16.091Z,14.35
2022-09-09T11:56:16.976Z,10.15
2022-09-09T11:59:18.118Z,9.85
2022-09-09T12:02:13.937Z,8.88
2022-09-09T12:05:15.056Z,8.40
2022-09-09T12:08:02.226Z,9.57
2022-09-09T12:11:04.360Z,9.55
2022-09-09T12:13:57.511Z,14.70
2022-09-09T12:16:43.907Z,12.20
2022-09-09T12:19:29.961Z,11.10
2022-09-09T12:22:29.323Z,8.32
2022-09-09T12:25:28.001Z,8.38
2022-09-09T12:28:20.418Z,7.95
2022-09-09T12:31:11.714Z,8.93
2022-09-09T12:34:26.372Z,13.75
2022-09-09T12:37:30.937Z,13.18
2022-09-09T12:40:30.018Z,12.05
2022-09-09T12:43:22.261Z,10.43
2022-09-09T12:46:10.283Z,10.00
2022-09-09T12:48:56.710Z,9.68
2022-09-09T12:51:44.725Z,10.15
2022-09-09T12:54:30.887Z,11.52
2022-09-09T12:57:16.900Z,11.90
2022-09-09T13:00:16.771Z,9.95
2022-09-09T13:03:14.617Z,9.82
2022-09-09T13:06:13.489Z,17.08
2022-09-09T13:09:02.249Z,13.48
2022-09-09T13:11:52.046Z,12.93
2022-09-09T13:14:40.756Z,9.77
2022-09-09T13:17:30.088Z,8.98
2022-09-09T13:20:20.628Z,8.70
2022-09-09T13:23:06.920Z,8.15
2022-09-09T13:26:01.696Z,11.38
2022-09-09T13:28:47.770Z,10.35
2022-09-09T13:31:36.705Z,10.73
2022-09-09T13:34:34.121Z,13.77
2022-09-09T13:37:35.442Z,10.18
2022-09-09T13:40:23.010Z,9.35
2022-09-09T13:43:16.901Z,8.80
2022-09-09T13:46:07.312Z,10.15
2022-09-09T13:49:01.453Z,8.77
2022-09-09T13:52:05.963Z,7.82
2022-09-09T13:54:52.834Z,10.00
2022-09-09T13:57:38.681Z,9.95
2022-09-09T14:00:25.715Z,12.13
2022-09-09T14:03:12.098Z,9.77
2022-09-09T14:05:58.873Z,10.73
2022-09-09T14:08:46.622Z,10.98
2022-09-09T14:11:33.008Z,10.48
2022-09-09T14:14:19.364Z,11.68
2022-09-09T14:17:07.993Z,17.63
2022-09-09T14:19:54.351Z,20.48
2022-09-09T14:22:43.025Z,20.45
2022-09-09T14:25:29.755Z,18.42
2022-09-09T14:28:16.295Z,13.82
2022-09-09T14:31:03.629Z,15.23
2022-09-09T14:33:49.709Z,13.70
2022-09-09T14:36:35.531Z,15.23
2022-09-09T14:39:21.698Z,18.23
2022-09-09T14:42:08.095Z,15.00
2022-09-09T14:44:54.540Z,11.45
2022-09-09T14:47:40.599Z,10.82
2022-09-09T14:50:26.720Z,9.77
2022-09-09T14:53:13.749Z,9.00
2022-09-09T14:56:11.456Z,8.95
2022-09-09T14:58:59.336Z,9.32
2022-09-09T15:01:45.625Z,9.10
2022-09-09T15:04:31.427Z,8.60
2022-09-09T15:07:20.290Z,9.82
2022-09-09T15:10:07.556Z,12.48
2022-09-09T15:12:54.167Z,14.60
2022-09-09T15:15:40.172Z,10.10
2022-09-09T15:18:26.645Z,8.40
2022-09-09T15:21:14.550Z,9.85
2022-09-09T15:24:00.644Z,20.65
2022-09-09T15:26:46.688Z,14.48
2022-09-09T15:29:32.588Z,12.30
2022-09-09T15:32:19.168Z,10.77
2022-09-09T15:35:05.545Z,11.25
2022-09-09T15:37:51.374Z,12.18
2022-09-09T15:40:37.353Z,11.40
2022-09-09T15:43:23.286Z,10.57
2022-09-09T15:46:27.076Z,9.10
2022-09-09T15:49:26.612Z,8.77
2022-09-09T15:52:13.038Z,8.35
2022-09-09T15:55:00.628Z,11.25
2022-09-09T15:57:48.405Z,10.38
2022-09-09T16:00:35.366Z,9.90
2022-09-09T16:03:21.759Z,9.68
2022-09-09T16:06:08.016Z,8.98
2022-09-09T16:08:54.590Z,9.65
2022-09-09T16:11:40.721Z,9.20
2022-09-09T16:14:26.966Z,7.75
2022-09-09T16:17:12.818Z,7.82
2022-09-09T16:19:58.731Z,8.18
2022-09-09T16:22:44.801Z,9.70
2022-09-09T16:25:31.169Z,9.50
2022-09-09T16:28:17.108Z,10.52
2022-09-09T16:31:07.446Z,11.10
2022-09-09T16:33:53.556Z,11.50
2022-09-09T16:36:41.389Z,8.95
2022-09-09T16:39:27.579Z,10.25
2022-09-09T16:42:13.494Z,12.27
2022-09-09T16:44:59.257Z,10.07
2022-09-09T16:47:45.561Z,9.90
2022-09-09T16:50:32.062Z,10.73
2022-09-09T16:53:17.926Z,9.20
2022-09-09T16:56:15.130Z,9.95
2022-09-09T16:59:03.156Z,13.02
2022-09-09T17:01:50.953Z,12.00
2022-09-09T17:04:37.091Z,12.10
2022-09-09T17:07:23.727Z,14.18
2022-09-09T17:10:09.695Z,11.23
2022-09-09T17:12:56.329Z,15.20
2022-09-09T17:15:43.854Z,11.23
2022-09-09T17:18:29.881Z,10.88
2022-09-09T17:21:19.065Z,12.18
2022-09-09T17:24:05.554Z,11.48
2022-09-09T17:26:51.630Z,16.05
2022-09-09T17:29:37.773Z,12.63
2022-09-09T17:32:23.587Z,11.25
2022-09-09T17:35:10.117Z,12.70
2022-09-09T17:37:56.022Z,14.35
2022-09-09T17:40:43.173Z,12.80
2022-09-09T17:43:29.478Z,11.90
2022-09-09T17:46:20.839Z,12.48
2022-09-09T17:49:13.453Z,12.15
2022-09-09T17:51:59.498Z,11.93
2022-09-09T17:54:45.753Z,11.65
2022-09-09T17:57:32.159Z,12.30
2022-09-09T18:00:18.595Z,12.02
2022-09-09T18:03:04.967Z,13.30
2022-09-09T18:05:50.942Z,14.75
2022-09-09T18:08:37.321Z,10.35
2022-09-09T18:11:25.974Z,7.30
2022-09-09T18:14:18.449Z,9.93
2022-09-09T18:17:04.775Z,10.43
2022-09-09T18:19:51.104Z,7.68
2022-09-09T18:22:37.404Z,7.20
2022-09-09T18:25:23.273Z,7.95
2022-09-09T18:28:09.391Z,8.02
2022-09-09T18:30:55.605Z,8.10
2022-09-09T18:33:44.380Z,4.90
2022-09-09T18:36:33.677Z,5.15
2022-09-09T18:39:21.165Z,5.55
2022-09-09T18:42:07.509Z,4.90
2022-09-09T18:44:53.588Z,5.60
2022-09-09T18:47:39.938Z,6.40
2022-09-09T18:50:25.677Z,5.03
2022-09-09T18:53:11.590Z,5.20
2022-09-09T18:56:02.589Z,6.07
2022-09-09T18:58:55.964Z,5.22
2022-09-09T19:01:42.923Z,4.72
2022-09-09T19:04:29.336Z,5.10
2022-09-09T19:07:15.144Z,6.22
2022-09-09T19:10:02.814Z,6.85
2022-09-09T19:12:49.050Z,6.65
2022-09-09T19:15:39.794Z,6.85
2022-09-09T19:18:27.494Z,6.70
2022-09-09T19:21:18.624Z,7.25
2022-09-09T19:24:15.977Z,7.55
2022-09-09T19:27:03.789Z,6.78
2022-09-09T19:29:52.079Z,5.93
2022-09-09T19:32:53.290Z,7.72
2022-09-09T19:35:40.006Z,7.10
2022-09-09T19:38:26.739Z,6.57
2022-09-09T19:41:21.449Z,6.68
2022-09-09T19:44:12.068Z,6.88
2022-09-09T19:46:59.633Z,7.53
2022-09-09T19:49:47.392Z,8.35
2022-09-09T19:52:33.705Z,8.48
2022-09-09T19:55:20.089Z,7.85
2022-09-09T19:58:06.284Z,9.23
2022-09-09T20:00:52.239Z,9.85
2022-09-09T20:03:40.180Z,10.05
2022-09-09T20:06:28.920Z,9.73
2022-09-09T20:09:16.962Z,10.93
2022-09-09T20:12:03.073Z,10.85
2022-09-09T20:14:48.986Z,9.40
2022-09-09T20:17:34.850Z,8.38
2022-09-09T20:20:21.274Z,9.40
2022-09-09T20:23:08.202Z,9.52
2022-09-09T20:25:54.304Z,10.85
2022-09-09T20:28:42.322Z,11.35
2022-09-09T20:31:30.057Z,14.07
2022-09-09T20:34:19.143Z,13.85
2022-09-09T20:37:06.047Z,14.25
2022-09-09T20:39:52.770Z,13.98
2022-09-09T20:42:39.821Z,13.80
2022-09-09T20:45:25.957Z,14.98
2022-09-09T20:48:11.879Z,16.67
2022-09-09T20:51:02.897Z,14.20
2022-09-09T20:53:49.248Z,15.15
2022-09-09T20:56:40.835Z,15.93
2022-09-09T20:59:28.365Z,17.55
2022-09-09T21:02:14.591Z,19.15
2022-09-09T21:05:01.547Z,16.60
2022-09-09T21:07:47.806Z,15.18
2022-09-09T21:10:33.856Z,12.25
2022-09-09T21:13:21.011Z,11.23
2022-09-09T21:16:09.542Z,11.25
2022-09-09T21:18:55.854Z,15.63
2022-09-09T21:21:42.028Z,12.25
2022-09-09T21:24:28.288Z,13.00
2022-09-09T21:27:15.326Z,12.02
2022-09-09T21:30:03.901Z,10.65
2022-09-09T21:32:50.045Z,10.27
2022-09-09T21:35:39.966Z,9.77
2022-09-09T21:38:26.084Z,10.00
2022-09-09T21:41:16.603Z,13.07
2022-09-09T21:44:02.677Z,12.77
2022-09-09T21:46:49.031Z,13.98
2022-09-09T21:49:34.838Z,14.73
2022-09-09T21:52:20.700Z,11.50
2022-09-09T21:55:07.058Z,11.13
2022-09-09T21:57:52.912Z,10.43
2022-09-09T22:00:42.945Z,8.85
2022-09-09T22:03:28.826Z,8.25
2022-09-09T22:06:16.880Z,9.25
2022-09-09T22:09:03.729Z,12.90
2022-09-09T22:11:49.582Z,14.35
2022-09-09T22:14:36.768Z,16.05
2022-09-09T22:17:24.677Z,13.40
2022-09-09T22:20:12.288Z,10.00
2022-09-09T22:22:58.202Z,9.85
2022-09-09T22:25:44.769Z,9.18
2022-09-09T22:28:31.210Z,8.95
2022-09-09T22:31:17.503Z,9.23
2022-09-09T22:34:03.784Z,11.07
2022-09-09T22:36:51.187Z,10.88
2022-09-09T22:39:37.477Z,11.13
2022-09-09T22:42:23.374Z,11.30
2022-09-09T22:45:10.285Z,11.07
2022-09-09T22:47:57.105Z,11.00
2022-09-09T22:50:43.076Z,10.90
2022-09-09T22:53:30.335Z,10.98
2022-09-09T22:56:19.138Z,10.38
2022-09-09T22:59:04.915Z,8.98
2022-09-09T23:01:51.442Z,8.90
2022-09-09T23:04:39.217Z,8.05
2022-09-09T23:07:25.166Z,10.68
2022-09-09T23:10:11.300Z,10.38
2022-09-09T23:12:58.776Z,11.48
2022-09-09T23:15:47.042Z,10.60
2022-09-09T23:18:33.869Z,11.13
2022-09-09T23:21:20.289Z,11.75
2022-09-09T23:24:08.018Z,11.82
2022-09-09T23:26:54.157Z,12.07
2022-09-09T23:29:40.110Z,11.07
2022-09-09T23:32:26.431Z,9.38
2022-09-09T23:35:12.414Z,8.50
2022-09-09T23:38:00.016Z,8.95
2022-09-09T23:40:46.978Z,8.23
2022-09-09T23:43:39.608Z,8.27
2022-09-09T23:46:28.479Z,8.75
2022-09-09T23:49:14.535Z,9.20
2022-09-09T23:52:05.447Z,8.98
2022-09-09T23:54:51.450Z,8.63
2022-09-09T23:57:37.266Z,9.00
